Portada
METAR-TAF:

METAR-TAF

Aeroports :

Salalah, Oman

latitud: 17-02N, longitud: 054-05E, altitud: 20 m

Observació

L'informe es va fer fa 1 hora i 21 minuts, a les 21:50 UTC
Vent 3 kt del Sud
Temperatura 26°C
Humitat 84%
Pressió 1012 hPa
Visibilitat 10 km o més
Núvols disperses a una alçada de 2500 ft

METAR: OOSA 192150Z 18003KT 9999 SCT025 26/23 Q1012 NOSIG

Hora: 03:11 (23:11 UTC)

Pronòstic

L'informe es va fer fa 5 hores i 31 minuts, a les 17:40 UTC
Pronòstic vàlid del 19 a les 18 UTC al 21 a les 00 UTC
Vent 3 kt amb direcció variable
Visibilitat 10 km o més
Cel ennuvolat a una alçada de 2500 ft
Evolucionant progressivament
l' 20 a les 05 UTC al 20 a les 07 UTC
Vent 10 kt del Sud/Sud-Est
Escasses núvols a una alçada de 2500 ft
Evolucionant progressivament
l' 20 a les 16 UTC al 20 a les 18 UTC
Vent 3 kt amb direcció variable
Cel ennuvolat a una alçada de 2500 ft

TAF: OOSA 191740Z 1918/2100 VRB03KT 9999 BKN025 BECMG 2005/2007 16010KT FEW025 BECMG 2016/2018 VRB03KT BKN025

Observacions i pronòstics meteorològics de més de 4000 aeroports (METAR i TAF).

Les estacions disponibles són els punts grocs i vermells al mapa.

Posi el ratolí al punt desitjat per veure el nom de l'estació.

Feu clic per veure les observacions i els pronòstics meteorològics.

Per canviar el mapa: feu clic els botons verds amb una creu de color negre per apropar; al botó verd amb un guió per allunyar la imatge; o en les fletxes verdes per a mapes adjacents.


METAR-TAF: